Time;durP1;ratioP1;P1;durP2;ratioP2;P2;SDS_P1;SDS_P2;PMS_P1;PMS_P2;Temp;Humidity;BMP_temperature;BMP_pressure;BME280_temperature;BME280_humidity;BME280_pressure;Samples;Min_cycle;Max_cycle;Signal;HPM_P1;HPM_P2
2022/05/03 00:02:29;;;;;;;38.90;20.48;;;9.30;99.90;;;;;;5014455;28;20510;-52
2022/05/03 00:05:08;;;;;;;38.28;19.52;;;9.30;99.90;;;;;;5014958;28;20029;-52
2022/05/03 00:07:38;;;;;;;42.35;20.52;;;9.20;99.90;;;;;;5014764;28;20030;-52
2022/05/03 00:10:20;;;;;;;40.50;20.00;;;9.30;99.90;;;;;;5014842;28;20152;-52
2022/05/03 00:12:57;;;;;;;36.38;19.80;;;9.30;99.90;;;;;;5014674;28;20029;-52
2022/05/03 00:15:25;;;;;;;35.97;19.98;;;9.30;99.90;;;;;;5014845;28;20499;-52
2022/05/03 00:17:52;;;;;;;38.15;21.45;;;9.30;99.90;;;;;;5014974;28;20029;-52
2022/05/03 00:20:19;;;;;;;42.45;21.30;;;9.20;99.90;;;;;;5014612;28;20086;-52
2022/05/03 00:22:46;;;;;;;44.80;22.20;;;9.10;99.90;;;;;;5014572;28;20440;-52
2022/05/03 00:25:12;;;;;;;44.30;21.65;;;9.10;99.90;;;;;;5014750;28;20084;-52
2022/05/03 00:27:38;;;;;;;44.10;22.13;;;9.10;99.90;;;;;;5014829;28;20026;-52
2022/05/03 00:30:06;;;;;;;42.05;22.27;;;9.10;99.90;;;;;;5016685;28;20042;-52
2022/05/03 00:32:34;;;;;;;42.42;21.95;;;9.10;99.90;;;;;;5018672;28;20050;-52
2022/05/03 00:35:00;;;;;;;35.53;20.33;;;9.20;99.90;;;;;;5018868;28;20084;-52
2022/05/03 00:37:27;;;;;;;44.38;21.27;;;9.10;99.90;;;;;;5018593;28;20038;-52
2022/05/03 00:39:53;;;;;;;37.83;20.25;;;9.10;99.90;;;;;;5018604;28;20037;-52
2022/05/03 00:42:25;;;;;;;37.47;20.38;;;9.10;99.90;;;;;;5018360;28;20297;-52
2022/05/03 00:45:03;;;;;;;39.55;20.13;;;9.10;99.90;;;;;;5018477;28;20066;-52
2022/05/03 00:47:52;;;;;;;38.17;19.92;;;9.10;99.90;;;;;;5018292;28;20120;-52
2022/05/03 00:51:12;;;;;;;40.67;20.98;;;9.10;99.90;;;;;;5018271;28;20520;-52
2022/05/03 00:54:01;;;;;;;36.38;19.60;;;9.10;99.90;;;;;;4996194;28;20034;-52
2022/05/03 00:56:33;;;;;;;37.45;19.40;;;9.10;99.90;;;;;;5018127;28;20470;-52
2022/05/03 00:59:36;;;;;;;40.60;21.95;;;9.10;99.90;;;;;;5018095;28;20022;-52
2022/05/03 01:02:07;;;;;;;41.10;20.33;;;9.20;99.90;;;;;;5018142;28;20049;-52
2022/05/03 01:04:56;;;;;;;39.67;20.80;;;9.20;99.90;;;;;;5017996;28;20041;-52
2022/05/03 01:07:34;;;;;;;39.45;20.92;;;9.10;99.90;;;;;;5017985;28;20092;-52
2022/05/03 01:10:15;;;;;;;44.58;20.55;;;9.10;99.90;;;;;;5017858;28;20025;-52
2022/05/03 01:12:59;;;;;;;;;;;9.10;99.90;;;;;;5018236;28;20364;-52
2022/05/03 01:15:39;;;;;;;35.63;19.88;;;9.10;99.90;;;;;;5017772;28;20402;-52
2022/05/03 01:18:29;;;;;;;47.13;21.70;;;9.20;99.90;;;;;;5018091;28;20041;-52
2022/05/03 01:21:11;;;;;;;44.10;22.52;;;9.20;99.90;;;;;;5017647;28;20056;-52
2022/05/03 01:23:56;;;;;;;46.55;23.55;;;9.20;99.90;;;;;;5017982;28;20053;-52
2022/05/03 01:26:53;;;;;;;45.45;21.88;;;9.20;99.90;;;;;;5017720;28;20037;-52
2022/05/03 01:29:33;;;;;;;35.75;18.35;;;9.20;99.90;;;;;;5017524;28;20046;-52
2022/05/03 01:32:08;;;;;;;34.20;17.85;;;9.20;99.90;;;;;;5017393;28;20045;-52
2022/05/03 01:34:36;;;;;;;29.13;14.98;;;9.20;99.90;;;;;;5017559;28;20026;-52
2022/05/03 01:37:36;;;;;;;28.33;15.23;;;9.10;99.90;;;;;;5017496;28;20042;-52
2022/05/03 01:40:12;;;;;;;27.63;14.70;;;9.10;99.90;;;;;;5016803;28;20124;-52
2022/05/03 01:42:41;;;;;;;26.80;14.32;;;9.00;99.90;;;;;;5017260;28;20026;-52
2022/05/03 01:45:09;;;;;;;28.33;14.10;;;9.00;99.90;;;;;;5017295;28;20037;-52
2022/05/03 01:47:48;;;;;;;29.63;15.40;;;9.00;99.90;;;;;;5017359;28;20376;-52
2022/05/03 01:50:30;;;;;;;28.58;16.35;;;9.00;99.90;;;;;;5017405;28;20030;-52
2022/05/03 01:53:26;;;;;;;49.25;19.33;;;9.00;99.90;;;;;;5017060;28;20378;-53
2022/05/03 01:56:10;;;;;;;32.20;18.17;;;9.00;99.90;;;;;;5017247;28;20030;-52
2022/05/03 01:58:58;;;;;;;32.90;17.90;;;9.00;99.90;;;;;;5017143;28;20029;-52
2022/05/03 02:01:33;;;;;;;32.83;18.50;;;8.90;99.90;;;;;;5016819;28;20038;-52
2022/05/03 02:04:09;;;;;;;35.50;18.73;;;8.90;99.90;;;;;;5016980;28;20099;-52
2022/05/03 02:06:57;;;;;;;31.73;18.17;;;8.90;99.90;;;;;;5016883;28;20050;-52
2022/05/03 02:09:54;;;;;;;34.47;19.52;;;9.00;99.90;;;;;;5016831;28;20105;-52
2022/05/03 02:12:21;;;;;;;38.67;20.67;;;9.00;99.90;;;;;;5013664;28;20042;-52
2022/05/03 02:15:02;;;;;;;36.60;20.90;;;9.00;99.90;;;;;;5016691;28;20991;-52
2022/05/03 02:17:54;;;;;;;42.13;22.00;;;9.00;99.90;;;;;;5016933;28;20344;-52
2022/05/03 02:20:52;;;;;;;37.42;20.33;;;8.90;99.90;;;;;;5016722;28;20066;-52
2022/05/03 02:23:33;;;;;;;43.47;20.95;;;8.90;99.90;;;;;;5016556;28;20475;-52
2022/05/03 02:26:18;;;;;;;35.45;19.52;;;8.90;99.90;;;;;;5016553;28;20514;-52
2022/05/03 02:29:06;;;;;;;35.17;19.02;;;8.90;99.90;;;;;;5016287;28;20033;-52
2022/05/03 02:32:01;;;;;;;26.77;16.17;;;8.90;99.90;;;;;;5016367;28;20041;-52
2022/05/03 02:34:45;;;;;;;32.35;16.40;;;8.90;99.90;;;;;;5013237;28;20044;-52
2022/05/03 02:37:21;;;;;;;44.88;16.75;;;9.00;99.90;;;;;;5016343;28;20482;-52
2022/05/03 02:39:51;;;;;;;36.28;16.00;;;8.90;99.90;;;;;;5016246;28;20126;-52
2022/05/03 02:42:19;;;;;;;29.52;15.88;;;8.80;99.90;;;;;;5016180;28;20042;-52
2022/05/03 02:44:47;;;;;;;32.80;14.77;;;8.90;99.90;;;;;;5016087;28;20026;-52
2022/05/03 02:47:33;;;;;;;30.75;14.32;;;8.70;99.90;;;;;;5016253;28;20453;-52
2022/05/03 02:50:09;;;;;;;30.52;14.85;;;8.70;99.90;;;;;;5016098;28;20053;-52
2022/05/03 02:52:54;;;;;;;25.83;14.07;;;8.70;99.90;;;;;;5015021;28;20054;-52
2022/05/03 02:55:25;;;;;;;26.25;15.23;;;8.70;99.90;;;;;;5016002;28;20083;-52
2022/05/03 02:58:25;;;;;;;31.73;15.82;;;8.60;99.90;;;;;;5016135;28;20120;-52
2022/05/03 03:04:10;;;;;;;33.33;16.92;;;8.60;99.90;;;;;;5014608;28;20041;-52
2022/05/03 03:06:41;;;;;;;31.85;18.20;;;8.60;99.90;;;;;;5015746;28;20096;-52
2022/05/03 03:09:08;;;;;;;34.60;18.42;;;8.60;99.90;;;;;;5015698;28;20018;-52
2022/05/03 03:12:25;;;;;;;37.70;19.30;;;8.60;99.90;;;;;;5015627;28;20029;-52
2022/05/03 03:15:07;;;;;;;35.22;19.90;;;8.70;99.90;;;;;;5003682;28;20053;-52
2022/05/03 03:17:40;;;;;;;38.35;20.75;;;8.70;99.90;;;;;;5015483;28;20042;-52
2022/05/03 03:20:12;;;;;;;33.75;18.73;;;8.70;99.90;;;;;;5015502;28;20040;-53
2022/05/03 03:22:42;;;;;;;35.22;20.55;;;8.60;99.90;;;;;;5015475;28;20034;-52
2022/05/03 03:25:11;;;;;;;34.47;19.23;;;8.60;99.90;;;;;;5015544;28;20423;-52
2022/05/03 03:27:39;;;;;;;38.53;20.10;;;8.60;99.90;;;;;;5015539;28;20029;-52
2022/05/03 03:30:07;;;;;;;38.42;20.98;;;8.60;99.90;;;;;;5015195;28;20049;-52
2022/05/03 03:32:55;;;;;;;34.33;19.92;;;8.60;99.90;;;;;;5015264;28;20034;-52
2022/05/03 03:35:21;;;;;;;38.90;19.58;;;8.60;99.90;;;;;;5015309;28;20120;-52
2022/05/03 03:37:50;;;;;;;39.40;19.77;;;8.60;99.90;;;;;;5015311;28;20050;-52
2022/05/03 03:40:18;;;;;;;39.28;18.90;;;8.60;99.90;;;;;;5015220;28;20089;-52
2022/05/03 03:42:46;;;;;;;32.80;18.58;;;8.60;99.90;;;;;;5015062;28;20492;-52
2022/05/03 03:45:14;;;;;;;33.55;19.05;;;8.60;99.90;;;;;;5015230;28;20160;-52
2022/05/03 03:47:42;;;;;;;34.10;17.58;;;8.60;99.90;;;;;;5015009;28;20380;-52
2022/05/03 03:50:10;;;;;;;29.95;16.70;;;8.70;99.90;;;;;;5015358;28;20029;-52
2022/05/03 03:52:39;;;;;;;26.80;15.63;;;8.70;99.90;;;;;;5015102;28;20488;-52
2022/05/03 03:55:07;;;;;;;26.48;14.27;;;8.80;99.90;;;;;;5014891;28;20030;-52
2022/05/03 03:57:35;;;;;;;29.42;17.70;;;8.70;99.90;;;;;;5014928;28;20033;-52
2022/05/03 04:00:04;;;;;;;34.28;18.80;;;8.70;99.90;;;;;;5014850;28;20026;-52
2022/05/03 04:02:42;;;;;;;34.90;18.13;;;8.70;99.90;;;;;;5014659;28;20092;-52
2022/05/03 04:05:16;;;;;;;34.00;17.85;;;8.70;99.90;;;;;;5015019;28;20026;-52
2022/05/03 04:07:42;;;;;;;33.30;17.35;;;8.70;99.90;;;;;;5014933;28;20092;-52
2022/05/03 04:10:09;;;;;;;25.85;14.10;;;8.70;99.90;;;;;;5014930;28;20030;-52
2022/05/03 04:12:36;;;;;;;32.05;13.60;;;8.60;99.90;;;;;;5014688;28;20545;-52
2022/05/03 04:15:02;;;;;;;24.98;14.90;;;8.60;99.90;;;;;;5014787;28;20537;-52
2022/05/03 04:17:28;;;;;;;24.58;15.15;;;8.60;99.90;;;;;;5014663;28;20100;-52
2022/05/03 04:19:55;;;;;;;24.45;13.52;;;8.60;99.90;;;;;;5014669;28;20034;-52
2022/05/03 04:22:28;;;;;;;26.00;15.13;;;8.70;99.90;;;;;;5014603;28;20036;-52
2022/05/03 04:24:55;;;;;;;30.05;15.57;;;8.70;99.90;;;;;;5014607;28;20026;-52
2022/05/03 04:27:21;;;;;;;20.33;12.45;;;8.80;99.90;;;;;;5014774;28;20057;-52
2022/05/03 04:29:48;;;;;;;24.48;12.05;;;8.70;99.90;;;;;;5014493;28;20041;-52
2022/05/03 04:32:14;;;;;;;21.98;12.10;;;8.80;99.90;;;;;;5014748;28;20057;-52
2022/05/03 04:34:40;;;;;;;21.33;11.90;;;8.80;99.90;;;;;;5014606;28;20049;-52
2022/05/03 04:37:06;;;;;;;20.38;11.32;;;8.70;99.90;;;;;;5014628;28;20026;-52
2022/05/03 04:39:33;;;;;;;18.60;11.43;;;8.80;99.90;;;;;;5014545;28;20026;-52
2022/05/03 04:41:59;;;;;;;22.30;11.68;;;8.70;99.90;;;;;;5014455;28;20041;-52
2022/05/03 04:44:25;;;;;;;19.20;11.85;;;8.80;99.90;;;;;;5014531;28;20028;-52
2022/05/03 04:46:50;;;;;;;25.60;12.07;;;8.90;99.90;;;;;;5014656;28;20087;-52
2022/05/03 04:49:17;;;;;;;22.85;12.60;;;8.90;99.90;;;;;;5014508;28;20038;-52
2022/05/03 04:51:43;;;;;;;24.95;12.82;;;9.00;99.90;;;;;;5014448;28;20526;-52
2022/05/03 04:54:09;;;;;;;22.52;11.95;;;9.00;99.90;;;;;;5014341;28;20041;-52
2022/05/03 04:56:35;;;;;;;32.08;13.15;;;9.10;99.90;;;;;;5014396;28;20030;-52
2022/05/03 04:59:03;;;;;;;27.42;15.40;;;9.10;99.90;;;;;;5014467;28;20037;-52
2022/05/03 05:01:29;;;;;;;35.95;14.93;;;9.10;99.90;;;;;;5014195;28;20037;-52
2022/05/03 05:03:55;;;;;;;22.10;11.93;;;9.10;99.90;;;;;;5014293;28;20077;-52
2022/05/03 05:06:21;;;;;;;25.48;11.85;;;9.10;99.90;;;;;;5014246;28;20022;-52
2022/05/03 05:08:48;;;;;;;21.83;12.80;;;9.20;99.90;;;;;;5014207;28;20057;-52
2022/05/03 05:11:14;;;;;;;24.10;13.65;;;9.30;99.90;;;;;;5014257;28;20037;-52
2022/05/03 05:13:41;;;;;;;25.33;13.52;;;9.40;99.90;;;;;;5014234;28;20026;-52
2022/05/03 05:16:08;;;;;;;25.85;12.77;;;9.50;99.90;;;;;;5017367;28;20026;-52
2022/05/03 05:18:34;;;;;;;24.40;12.30;;;9.40;99.90;;;;;;5017723;28;20045;-52
2022/05/03 05:21:00;;;;;;;24.30;12.60;;;9.30;99.90;;;;;;5017679;28;20038;-52
2022/05/03 05:23:26;;;;;;;20.30;12.68;;;9.40;99.90;;;;;;5017702;28;20091;-52
2022/05/03 05:25:54;;;;;;;25.70;12.23;;;9.40;99.90;;;;;;5017769;28;20430;-52
2022/05/03 05:28:21;;;;;;;24.70;12.52;;;9.60;99.90;;;;;;5017672;28;20029;-52
2022/05/03 05:30:54;;;;;;;20.17;11.60;;;9.70;99.90;;;;;;5017525;28;20116;-52
2022/05/03 05:33:22;;;;;;;22.70;12.15;;;9.80;99.90;;;;;;5017549;28;20037;-52
2022/05/03 05:35:50;;;;;;;27.40;13.35;;;9.80;99.90;;;;;;5017555;28;20069;-52
2022/05/03 05:38:17;;;;;;;21.92;12.88;;;9.90;99.90;;;;;;5017557;28;20030;-52
2022/05/03 05:40:47;;;;;;;25.23;13.97;;;10.10;99.90;;;;;;5017391;28;20038;-52
2022/05/03 05:43:16;;;;;;;23.80;14.97;;;10.30;99.90;;;;;;5017288;28;20026;-52
2022/05/03 05:45:42;;;;;;;33.33;16.08;;;10.50;99.90;;;;;;5017205;28;20776;-52
2022/05/03 05:48:09;;;;;;;27.90;14.85;;;10.60;99.90;;;;;;5017475;28;20022;-52
2022/05/03 05:50:36;;;;;;;30.45;15.68;;;10.80;99.90;;;;;;5017194;28;20176;-52
2022/05/03 05:55:47;;;;;;;28.80;16.00;;;10.90;99.90;;;;;;5017000;28;20081;-52
2022/05/03 05:58:13;;;;;;;34.35;16.25;;;11.10;99.90;;;;;;5017066;28;20030;-52
2022/05/03 06:00:39;;;;;;;30.67;15.40;;;11.20;99.90;;;;;;5017069;28;20062;-52
2022/05/03 06:03:05;;;;;;;42.65;21.10;;;11.50;99.90;;;;;;5016844;28;20382;-53
2022/05/03 06:05:32;;;;;;;64.65;34.63;;;11.60;99.90;;;;;;5016958;28;20057;-52
2022/05/03 06:07:58;;;;;;;134.98;72.65;;;11.80;99.90;;;;;;5016859;28;20025;-53
2022/05/03 06:10:24;;;;;;;114.53;62.20;;;12.00;99.90;;;;;;5016958;28;20030;-52
2022/05/03 06:12:50;;;;;;;121.45;61.90;;;12.20;99.90;;;;;;5016884;28;20030;-52
2022/05/03 06:15:19;;;;;;;148.40;77.30;;;12.30;99.90;;;;;;5016678;28;20030;-53
2022/05/03 06:17:45;;;;;;;116.30;59.90;;;12.20;99.90;;;;;;5016632;28;20041;-52
2022/05/03 06:20:12;;;;;;;70.38;39.25;;;12.40;99.90;;;;;;5016688;28;20104;-53
2022/05/03 06:22:41;;;;;;;118.00;56.15;;;12.40;99.90;;;;;;5016559;28;20456;-53
2022/05/03 06:25:08;;;;;;;101.45;50.88;;;12.70;99.90;;;;;;5016452;28;20053;-53
2022/05/03 06:27:39;;;;;;;83.68;46.00;;;12.90;99.90;;;;;;5016669;28;20133;-53
2022/05/03 06:30:07;;;;;;;85.68;47.00;;;13.30;99.90;;;;;;5016354;28;20076;-53
2022/05/03 06:32:35;;;;;;;91.30;43.92;;;13.60;99.90;;;;;;5016357;28;20032;-53
2022/05/03 06:35:02;;;;;;;82.28;44.17;;;13.80;99.90;;;;;;5016431;28;20037;-53
2022/05/03 06:37:28;;;;;;;96.60;46.20;;;14.00;99.90;;;;;;5016320;28;20100;-53
2022/05/03 06:39:54;;;;;;;85.93;42.58;;;13.90;99.90;;;;;;5016256;28;20038;-53
2022/05/03 06:42:20;;;;;;;83.18;40.85;;;14.00;99.90;;;;;;5016206;28;20076;-53
2022/05/03 06:44:47;;;;;;;75.93;41.22;;;14.10;99.90;;;;;;5016070;28;20021;-53
2022/05/03 06:47:13;;;;;;;78.47;41.40;;;14.00;99.90;;;;;;5016363;28;20034;-53
2022/05/03 06:49:39;;;;;;;75.30;38.22;;;14.10;99.90;;;;;;5016235;28;20109;-53
2022/05/03 06:52:05;;;;;;;76.22;37.78;;;14.30;99.90;;;;;;5016334;28;20040;-53
2022/05/03 06:54:31;;;;;;;73.00;38.25;;;14.40;99.90;;;;;;5015944;28;20034;-53
2022/05/03 06:56:57;;;;;;;79.88;38.95;;;14.50;99.90;;;;;;5016095;28;20034;-53
2022/05/03 06:59:23;;;;;;;73.25;36.25;;;14.70;99.90;;;;;;5015940;28;20042;-53
2022/05/03 07:01:49;;;;;;;75.75;38.53;;;15.00;99.90;;;;;;5015877;28;20025;-53
2022/05/03 07:04:15;;;;;;;69.10;36.67;;;15.20;99.90;;;;;;5015645;28;20030;-53
2022/05/03 07:06:41;;;;;;;68.82;36.40;;;15.50;99.90;;;;;;5015688;28;20053;-53
2022/05/03 07:09:07;;;;;;;68.75;35.47;;;15.40;99.90;;;;;;5015629;28;20060;-53
2022/05/03 07:11:34;;;;;;;72.00;35.47;;;15.70;99.90;;;;;;5015547;28;20507;-53
2022/05/03 07:14:00;;;;;;;65.85;33.53;;;16.00;99.90;;;;;;5015617;28;20040;-53
2022/05/03 07:16:26;;;;;;;57.45;31.80;;;15.90;99.90;;;;;;5015830;28;20090;-53
2022/05/03 07:24:21;;;;;;;60.30;30.98;;;16.30;99.90;;;;;;5015386;28;20087;-53
2022/05/03 07:26:48;;;;;;;52.40;28.58;;;16.80;98.50;;;;;;5015305;28;20069;-53
2022/05/03 07:29:14;;;;;;;57.17;29.70;;;17.30;99.00;;;;;;5015150;28;20053;-53
2022/05/03 07:31:41;;;;;;;60.67;28.95;;;17.60;95.50;;;;;;5015290;28;20113;-53
2022/05/03 07:34:08;;;;;;;55.17;28.98;;;18.00;93.40;;;;;;5015382;28;20072;-53
2022/05/03 07:36:35;;;;;;;58.53;31.27;;;18.20;89.40;;;;;;5015229;28;20042;-53
2022/05/03 07:39:02;;;;;;;60.13;31.35;;;18.30;87.30;;;;;;5014809;28;20065;-53
2022/05/03 07:41:28;;;;;;;54.67;29.27;;;18.60;90.30;;;;;;5015075;28;20038;-53
2022/05/03 07:43:54;;;;;;;49.05;27.75;;;18.40;83.50;;;;;;5015446;28;20034;-53
2022/05/03 07:46:20;;;;;;;55.92;30.98;;;18.50;79.80;;;;;;5015226;28;20487;-53
2022/05/03 07:48:46;;;;;;;55.10;31.13;;;18.70;86.30;;;;;;5015130;28;20519;-53
2022/05/03 07:51:12;;;;;;;62.20;33.50;;;18.80;84.30;;;;;;5014918;28;20475;-53
2022/05/03 07:53:39;;;;;;;59.05;30.77;;;19.20;84.30;;;;;;5015318;28;20038;-53
2022/05/03 07:56:06;;;;;;;57.22;30.65;;;19.50;75.50;;;;;;5015007;28;20029;-53
2022/05/03 07:58:32;;;;;;;48.97;28.35;;;19.50;76.00;;;;;;5014963;28;20356;-53
2022/05/03 08:00:58;;;;;;;62.88;35.40;;;19.80;70.60;;;;;;5014888;28;20037;-53
2022/05/03 08:03:24;;;;;;;66.82;35.83;;;20.20;72.70;;;;;;5015247;28;20030;-53
2022/05/03 08:05:50;;;;;;;61.03;35.95;;;20.10;71.70;;;;;;5014806;28;20468;-53
2022/05/03 08:08:16;;;;;;;72.82;37.13;;;20.40;65.70;;;;;;5014711;28;20033;-53
2022/05/03 08:10:45;;;;;;;65.95;36.42;;;20.40;62.90;;;;;;5014753;28;20117;-53
2022/05/03 08:13:11;;;;;;;55.17;34.53;;;20.40;61.80;;;;;;5014898;28;20026;-53
2022/05/03 08:15:39;;;;;;;56.65;29.52;;;20.40;62.30;;;;;;5014867;28;20085;-53
2022/05/03 08:18:06;;;;;;;49.80;28.48;;;20.60;63.10;;;;;;5014756;28;20077;-53
2022/05/03 08:20:32;;;;;;;40.45;23.67;;;20.80;59.70;;;;;;5014140;28;20041;-53
2022/05/03 08:22:59;;;;;;;41.47;22.35;;;20.50;58.70;;;;;;5013452;28;20071;-53
2022/05/03 08:25:26;;;;;;;35.13;21.02;;;20.70;55.80;;;;;;5014723;28;20084;-53
2022/05/03 08:27:52;;;;;;;41.10;21.85;;;20.90;54.30;;;;;;5014688;28;20431;-53
2022/05/03 08:30:18;;;;;;;34.35;21.85;;;21.20;55.40;;;;;;5014469;28;20514;-53
2022/05/03 08:32:44;;;;;;;40.58;22.98;;;21.50;53.50;;;;;;5014617;28;20044;-53
2022/05/03 08:35:10;;;;;;;41.13;23.75;;;21.60;53.80;;;;;;5014473;28;20479;-53
2022/05/03 08:43:07;;;;;;;51.28;28.08;;;21.90;50.10;;;;;;5014556;28;20037;-53
2022/05/03 08:45:33;;;;;;;52.83;28.35;;;21.90;50.40;;;;;;5014852;28;20109;-53
2022/05/03 08:48:02;;;;;;;59.15;31.52;;;21.80;49.60;;;;;;5014436;28;20026;-53
2022/05/03 08:50:32;;;;;;;51.60;28.63;;;21.70;49.90;;;;;;5016811;28;20038;-53
2022/05/03 08:53:03;;;;;;;47.35;26.52;;;21.00;51.70;;;;;;5018252;28;20049;-53
2022/05/03 08:55:29;;;;;;;34.53;21.52;;;21.30;54.90;;;;;;5018103;28;20037;-53
2022/05/03 08:57:56;;;;;;;54.15;26.55;;;21.80;57.70;;;;;;5018199;28;20108;-53
2022/05/03 09:00:22;;;;;;;41.50;23.92;;;22.20;50.60;;;;;;5018094;28;20114;-54
2022/05/03 09:02:51;;;;;;;36.63;18.50;;;22.40;55.40;;;;;;5018022;28;20030;-53
2022/05/03 09:05:18;;;;;;;31.98;17.60;;;22.60;52.20;;;;;;5018087;28;20049;-53
2022/05/03 09:07:49;;;;;;;37.28;19.58;;;23.00;53.60;;;;;;5017807;28;20061;-53
2022/05/03 09:10:17;;;;;;;28.65;17.38;;;23.50;52.60;;;;;;5017852;28;20065;-53
2022/05/03 09:12:44;;;;;;;27.10;15.57;;;23.50;49.20;;;;;;5017906;28;20113;-53
2022/05/03 09:15:13;;;;;;;25.30;15.10;;;23.60;48.90;;;;;;5018068;28;20220;-53
2022/05/03 09:17:43;;;;;;;34.08;15.32;;;23.30;49.00;;;;;;5017895;28;20113;-53
2022/05/03 09:26:15;;;;;;;30.02;14.90;;;24.30;49.40;;;;;;5017637;28;20041;-53
2022/05/03 09:28:52;;;;;;;16.60;11.15;;;24.40;46.10;;;;;;5017398;28;20390;-53
2022/05/03 09:31:42;;;;;;;24.55;14.02;;;24.20;45.00;;;;;;5017335;28;20117;-53
2022/05/03 09:34:22;;;;;;;;;;;23.90;44.60;;;;;;5015181;28;20041;-53
2022/05/03 09:36:51;;;;;;;28.45;13.88;;;23.40;45.90;;;;;;5017389;28;20310;-53
2022/05/03 09:39:27;;;;;;;26.95;13.40;;;23.00;46.00;;;;;;5017405;28;20030;-53
2022/05/03 09:42:15;;;;;;;31.77;12.70;;;23.40;46.10;;;;;;5017213;28;20534;-53
2022/05/03 09:44:55;;;;;;;18.63;10.93;;;23.20;47.60;;;;;;5017125;28;20548;-53
2022/05/03 09:47:22;;;;;;;;;;;23.50;45.30;;;;;;5017731;28;20113;-53
2022/05/03 09:49:49;;;;;;;16.25;8.05;;;23.20;45.70;;;;;;5017185;28;19914;-53
2022/05/03 09:52:29;;;;;;;13.70;7.28;;;23.40;45.70;;;;;;5016907;28;20037;-53
2022/05/03 09:55:04;;;;;;;22.15;10.25;;;23.50;43.70;;;;;;5017184;28;20037;-53
2022/05/03 09:57:32;;;;;;;16.88;8.70;;;23.90;44.40;;;;;;5016957;28;20034;-53
2022/05/03 09:59:59;;;;;;;18.13;8.23;;;24.20;44.90;;;;;;5016610;28;20492;-53
2022/05/03 10:02:27;;;;;;;15.60;7.45;;;24.20;42.30;;;;;;5016781;28;20022;-53
2022/05/03 10:04:56;;;;;;;28.67;12.32;;;24.00;42.00;;;;;;5016918;28;20155;-53
2022/05/03 10:07:33;;;;;;;28.13;12.63;;;23.20;43.90;;;;;;5016864;28;20026;-53
2022/05/03 10:10:10;;;;;;;33.85;12.88;;;23.00;45.00;;;;;;5000245;28;20116;-53
2022/05/03 10:12:39;;;;;;;23.40;11.70;;;22.70;44.90;;;;;;5016806;28;20038;-53
2022/05/03 10:20:35;;;;;;;20.52;10.18;;;22.50;44.90;;;;;;5016682;28;20033;-53
2022/05/03 10:21:03;;;;;;;20.67;9.70;;;21.50;49.10;;;;;;5016384;28;20568;-53
2022/05/03 10:23:39;;;;;;;21.25;8.63;;;21.60;47.60;;;;;;5016427;28;20046;-53
2022/05/03 10:26:22;;;;;;;16.00;7.68;;;21.80;46.90;;;;;;5015197;28;20357;-53
2022/05/03 10:29:03;;;;;;;14.40;6.80;;;22.20;45.60;;;;;;5016200;28;20049;-53
2022/05/03 10:31:53;;;;;;;12.45;5.72;;;22.80;42.50;;;;;;5016321;28;20041;-53
2022/05/03 10:34:49;;;;;;;12.25;5.93;;;22.70;39.60;;;;;;5016461;28;20034;-53
2022/05/03 10:37:40;;;;;;;24.25;9.90;;;22.40;40.00;;;;;;5016418;28;20034;-53
2022/05/03 10:40:16;;;;;;;19.20;7.38;;;22.20;43.50;;;;;;5016005;28;20037;-53
2022/05/03 10:43:06;;;;;;;9.75;5.30;;;21.90;44.60;;;;;;5016117;28;20042;-53
2022/05/03 10:45:57;;;;;;;14.23;6.50;;;21.60;41.90;;;;;;5016224;28;20220;-53
2022/05/03 10:48:23;;;;;;;9.88;5.93;;;21.40;42.60;;;;;;5015980;28;20033;-53
2022/05/03 10:50:52;;;;;;;15.65;8.60;;;21.20;43.00;;;;;;5016003;28;20029;-53
2022/05/03 10:53:22;;;;;;;16.92;8.20;;;21.00;45.20;;;;;;5015983;28;20030;-53
2022/05/03 10:56:08;;;;;;;11.95;7.22;;;20.80;46.80;;;;;;5015702;28;20036;-53
2022/05/03 10:58:41;;;;;;;20.45;9.85;;;20.50;46.10;;;;;;5015935;28;20038;-53
2022/05/03 11:01:22;;;;;;;12.55;7.40;;;20.40;46.00;;;;;;5015876;28;20022;-53
2022/05/03 11:03:47;;;;;;;20.58;10.13;;;20.30;45.20;;;;;;5015995;28;20065;-53
2022/05/03 11:06:19;;;;;;;19.67;8.73;;;20.40;46.50;;;;;;5015882;28;20053;-53
2022/05/03 11:14:22;;;;;;;14.88;6.82;;;20.10;46.60;;;;;;5015351;28;20239;-53
2022/05/03 11:16:50;;;;;;;15.57;7.28;;;20.20;47.20;;;;;;5015517;28;20056;-53
2022/05/03 11:19:21;;;;;;;12.77;5.85;;;20.30;46.60;;;;;;5015606;28;20057;-53
2022/05/03 11:21:49;;;;;;;16.58;6.22;;;20.50;45.10;;;;;;5015466;28;20417;-53
2022/05/03 11:24:26;;;;;;;12.05;5.20;;;20.60;44.00;;;;;;5015619;28;20033;-53
2022/05/03 11:26:55;;;;;;;8.93;4.75;;;20.80;44.50;;;;;;5015757;28;20118;-53
2022/05/03 11:29:31;;;;;;;11.85;5.90;;;20.90;43.20;;;;;;5015216;28;20049;-53
2022/05/03 11:31:59;;;;;;;15.10;6.22;;;20.80;43.30;;;;;;5015250;28;20034;-53
2022/05/03 11:34:26;;;;;;;10.15;4.50;;;20.80;44.10;;;;;;5015343;28;20081;-53
2022/05/03 11:36:53;;;;;;;9.27;3.78;;;20.90;43.80;;;;;;5015558;28;20022;-53
2022/05/03 11:39:23;;;;;;;7.47;4.68;;;20.80;43.40;;;;;;5015218;28;20431;-53
2022/05/03 11:41:50;;;;;;;9.55;4.45;;;20.80;43.60;;;;;;5015082;28;20092;-53
2022/05/03 11:44:16;;;;;;;8.50;3.85;;;20.90;43.80;;;;;;5015109;28;20025;-53
2022/05/03 11:46:45;;;;;;;11.05;4.53;;;20.90;42.90;;;;;;5015055;28;20030;-53
2022/05/03 11:49:13;;;;;;;7.00;4.00;;;20.90;42.40;;;;;;5015187;28;20085;-53
2022/05/03 11:57:33;;;;;;;8.13;3.40;;;21.10;42.90;;;;;;5014942;28;20480;-53
2022/05/03 12:00:00;;;;;;;8.60;3.55;;;21.20;43.60;;;;;;5014901;28;20038;-53
2022/05/03 12:02:30;;;;;;;5.10;3.17;;;21.40;42.30;;;;;;5014814;28;20431;-53
2022/05/03 12:05:11;;;;;;;10.80;4.25;;;21.80;41.80;;;;;;5014933;28;20033;-53
2022/05/03 12:07:52;;;;;;;8.20;3.97;;;22.10;42.40;;;;;;5014677;28;20025;-53
2022/05/03 12:10:20;;;;;;;3.92;2.40;;;22.30;40.60;;;;;;5014796;28;20060;-53
2022/05/03 12:13:02;;;;;;;12.95;9.65;;;22.30;36.60;;;;;;5014711;28;20026;-53
2022/05/03 12:15:29;;;;;;;7.07;3.50;;;22.40;38.30;;;;;;5014873;28;20044;-53
2022/05/03 12:18:15;;;;;;;9.13;3.08;;;22.60;37.70;;;;;;5014660;28;20125;-53
2022/05/03 12:20:48;;;;;;;5.75;2.70;;;23.00;38.10;;;;;;5014566;28;20034;-53
2022/05/03 12:23:22;;;;;;;7.57;3.63;;;24.00;38.10;;;;;;5015170;28;20384;-53
2022/05/03 12:25:56;;;;;;;5.20;2.97;;;24.30;36.00;;;;;;5021214;28;20057;-53
2022/05/03 12:28:42;;;;;;;3.50;2.53;;;24.30;34.60;;;;;;5021222;28;20033;-53
2022/05/03 12:31:09;;;;;;;5.85;3.13;;;23.70;33.90;;;;;;5021248;28;20057;-53
2022/05/03 12:33:44;;;;;;;3.10;2.20;;;23.20;33.20;;;;;;5021080;28;20542;-53
2022/05/03 12:36:11;;;;;;;4.28;2.58;;;22.70;34.20;;;;;;5021197;28;20025;-53
2022/05/03 12:38:47;;;;;;;6.47;2.75;;;22.60;34.00;;;;;;5021155;28;20052;-53
2022/05/03 12:41:31;;;;;;;4.75;2.53;;;22.50;34.90;;;;;;5020994;28;20084;-53
2022/05/03 12:44:14;;;;;;;6.78;2.78;;;22.60;38.60;;;;;;5021095;28;20030;-53
2022/05/03 12:46:41;;;;;;;10.65;2.80;;;22.40;39.60;;;;;;5021097;28;20482;-53
2022/05/03 12:49:11;;;;;;;6.53;2.88;;;22.40;41.10;;;;;;5020845;28;20030;-53
2022/05/03 12:51:48;;;;;;;6.55;3.00;;;22.30;42.30;;;;;;5021009;28;20104;-53
2022/05/03 12:54:14;;;;;;;7.07;2.90;;;22.10;40.60;;;;;;5020901;28;20034;-53
2022/05/03 12:59:28;;;;;;;4.18;2.80;;;21.70;39.90;;;;;;5020970;28;20100;-53
2022/05/03 13:01:56;;;;;;;7.70;3.17;;;21.60;39.70;;;;;;5020754;28;20029;-53
2022/05/03 13:04:28;;;;;;;10.60;3.67;;;21.30;40.00;;;;;;5020883;28;20101;-53
2022/05/03 13:06:54;;;;;;;8.27;3.75;;;20.80;42.50;;;;;;5020832;28;20129;-53
2022/05/03 13:09:21;;;;;;;7.22;3.15;;;20.90;43.90;;;;;;5020704;28;20026;-53
2022/05/03 13:11:47;;;;;;;5.05;3.50;;;20.80;44.00;;;;;;5020739;28;20025;-53
2022/05/03 13:14:14;;;;;;;9.80;3.72;;;20.50;43.10;;;;;;5020760;28;20542;-53
2022/05/03 13:16:40;;;;;;;7.97;3.45;;;20.30;44.30;;;;;;5020740;28;20026;-53
2022/05/03 13:19:06;;;;;;;14.57;3.95;;;20.20;46.60;;;;;;5020704;28;20026;-53
2022/05/03 13:21:39;;;;;;;10.57;4.88;;;20.30;47.20;;;;;;5020579;28;20494;-53
2022/05/03 13:24:06;;;;;;;6.88;4.03;;;20.20;45.90;;;;;;5020995;28;20026;-53
2022/05/03 13:26:33;;;;;;;10.23;3.80;;;20.00;43.40;;;;;;5020677;28;20013;-53
2022/05/03 13:29:01;;;;;;;9.07;3.47;;;19.90;44.50;;;;;;5020432;28;20491;-53
2022/05/03 13:31:29;;;;;;;12.02;4.65;;;19.70;42.80;;;;;;5020669;28;20088;-53
2022/05/03 13:33:55;;;;;;;9.15;4.22;;;19.60;42.20;;;;;;5020614;28;20045;-53
2022/05/03 13:41:51;;;;;;;6.60;3.25;;;19.70;43.70;;;;;;5017467;28;20038;-53
2022/05/03 13:44:17;;;;;;;9.35;3.90;;;19.70;42.40;;;;;;5017353;28;20105;-53
2022/05/03 13:46:43;;;;;;;8.32;4.57;;;19.70;44.10;;;;;;5017187;28;20045;-53